Terminal Aerodrome Forecast
Issued by NWS

Home | Current Version | Previous Version | Text Only | Print | Product List | Glossary On
Versions: 1 2 3 4 5 6 7 8 9 10 11 12 13 14 15
000
FTUS43 KEAX 060200 AAA
TAFMKC
TAF AMD
KMKC 060222Z 0602/0624 14010KT P6SM SCT100 BKN150
      TEMPO 0602/0603 5SM -TSRA OVC040CB
     FM061000 15010G20KT P6SM FEW040 SCT100
     FM061400 17016G26KT P6SM -SHRA VCTS BKN030CB=

USA.gov is the U.S. government's official web portal to all federal, state and local government web resources and services.